The Hangar Logo

METARs in Plain English
Latest METAR information for EGVN - BRIZE NORTON

EGVN 301750Z 01013KT 9999 FEW032 OVC200 17/10 Q1017 NOSIG

In plain english is....

This is a METAR report for EGVN - BRIZE NORTON .
The report was made 27 minutes ago, at 17:50 UTC.
The wind was blowing at a speed of 13 knots (15.0 miles per hour, 6.7 metres per second) from the North (010°).
The visibility was greater than 6.2 miles (greater than 10 kilometres).
There were a few clouds at a height of 3200 feet (975 metres) and overcast at a height of 20000 feet (6096 metres).
The temperature was 17°C (63°F), a dew point of 10°C (50°F) and a relative humidity of 63.4%.
The altimeter setting (airfield QNH) was 1,017 hPa (30.03 inHg).
Other remarks NOSIG.

UK Mainland

Ireland

Channel Islands

France

Other



Enter
Tel: 07092 887559 - Fax: 07092 183262

Content copyright © 1999-2016 TheHangar.co.uk. All rights reserved.
Please send your questions, comments, or bug reports to the Webmaster.